createdAt,value
2023-05-18T00:01:00.488Z,98785.00
2023-05-18T00:02:34.282Z,98781.38
2023-05-18T00:04:08.459Z,98788.63
2023-05-18T00:05:43.016Z,98784.34
2023-05-18T00:07:15.649Z,98790.53
2023-05-18T00:08:48.856Z,98780.75
2023-05-18T00:10:22.288Z,98777.13
2023-05-18T00:11:54.893Z,98781.38
2023-05-18T00:13:28.147Z,98782.34
2023-05-18T00:15:01.312Z,98782.34
2023-05-18T00:16:36.005Z,98774.53
2023-05-18T00:18:10.754Z,98790.69
2023-05-18T00:19:46.979Z,98792.81
2023-05-18T00:21:20.525Z,98786.59
2023-05-18T00:22:54.155Z,98782.16
2023-05-18T00:24:27.670Z,98791.09
2023-05-18T00:26:01.672Z,98790.91
2023-05-18T00:27:34.851Z,98793.28
2023-05-18T00:29:08.812Z,98793.09
2023-05-18T00:30:41.379Z,98793.28
2023-05-18T00:32:16.001Z,98785.59
2023-05-18T00:33:48.339Z,98795.38
2023-05-18T00:35:21.754Z,98790.13
2023-05-18T00:36:54.151Z,98786.50
2023-05-18T00:38:27.354Z,98789.19
2023-05-18T00:39:59.485Z,98791.09
2023-05-18T00:41:33.239Z,98790.03
2023-05-18T00:43:06.947Z,98794.50
2023-05-18T00:44:39.208Z,98790.13
2023-05-18T00:46:13.113Z,98796.25
2023-05-18T00:47:47.446Z,98790.22
2023-05-18T00:49:21.373Z,98792.81
2023-05-18T00:50:55.578Z,98794.50
2023-05-18T00:52:29.608Z,98790.91
2023-05-18T00:54:03.809Z,98784.91
2023-05-18T00:55:37.687Z,98800.00
2023-05-18T00:57:10.059Z,98790.22
2023-05-18T00:58:44.039Z,98789.28
2023-05-18T01:00:17.549Z,98793.56
2023-05-18T01:01:51.259Z,98799.91
2023-05-18T01:03:26.279Z,98792.88
2023-05-18T01:05:00.749Z,98800.34
2023-05-18T01:06:36.458Z,98800.97
2023-05-18T01:08:10.199Z,98800.81
2023-05-18T01:09:43.838Z,98799.09
2023-05-18T01:11:26.165Z,98806.78
2023-05-18T01:13:04.115Z,98803.28
2023-05-18T01:14:42.850Z,98807.66
2023-05-18T01:16:24.255Z,98811.28
2023-05-18T01:18:06.275Z,98804.03
2023-05-18T01:20:07.271Z,98803.06
2023-05-18T01:21:58.878Z,98808.50
2023-05-18T01:23:55.009Z,98801.84
2023-05-18T01:25:33.932Z,98803.66
2023-05-18T01:27:09.975Z,98809.94
2023-05-18T01:28:46.396Z,98805.44
2023-05-18T01:30:20.528Z,98797.53
2023-05-18T01:31:54.394Z,98801.63
2023-05-18T01:33:26.854Z,98804.03
2023-05-18T01:35:00.059Z,98804.13
2023-05-18T01:36:34.244Z,98800.63
2023-05-18T01:38:06.677Z,98801.44
2023-05-18T01:39:40.860Z,98805.94
2023-05-18T01:41:19.343Z,98803.28
2023-05-18T01:42:59.548Z,98806.13
2023-05-18T01:44:38.195Z,98803.75
2023-05-18T01:46:18.290Z,98805.66
2023-05-18T01:47:57.715Z,98811.63
2023-05-18T01:49:34.974Z,98811.63
2023-05-18T01:51:12.683Z,98808.00
2023-05-18T01:52:52.689Z,98815.25
2023-05-18T01:54:27.981Z,98815.25
2023-05-18T01:56:02.519Z,98813.34
2023-05-18T01:57:39.329Z,98820.41
2023-05-18T01:59:15.166Z,98819.53
2023-05-18T02:00:48.428Z,98822.28
2023-05-18T02:02:21.977Z,98826.66
2023-05-18T02:03:55.491Z,98820.75
2023-05-18T02:05:28.003Z,98824.38
2023-05-18T02:07:01.312Z,98824.38
2023-05-18T02:08:33.820Z,98828.06
2023-05-18T02:10:08.038Z,98827.50
2023-05-18T02:11:41.496Z,98826.63
2023-05-18T02:13:13.710Z,98825.78
2023-05-18T02:14:48.618Z,98832.63
2023-05-18T02:16:22.139Z,98830.53
2023-05-18T02:17:58.287Z,98826.75
2023-05-18T02:19:31.689Z,98830.00
2023-05-18T02:21:05.193Z,98823.63
2023-05-18T02:22:38.876Z,98835.78
2023-05-18T02:24:12.582Z,98825.50
2023-05-18T02:25:46.826Z,98831.97
2023-05-18T02:27:20.441Z,98826.94
2023-05-18T02:28:55.082Z,98828.84
2023-05-18T02:30:33.278Z,98827.41
2023-05-18T02:32:06.854Z,98828.19
2023-05-18T02:33:40.265Z,98830.72
2023-05-18T02:35:13.951Z,98833.69
2023-05-18T02:36:48.896Z,98833.69
2023-05-18T02:38:22.500Z,98841.28
2023-05-18T02:39:55.834Z,98845.69
2023-05-18T02:41:29.083Z,98852.69
2023-05-18T02:43:01.673Z,98842.81
2023-05-18T02:44:35.813Z,98852.53
2023-05-18T02:46:09.706Z,98845.19
2023-05-18T02:47:44.232Z,98853.09
2023-05-18T02:49:16.869Z,98859.28
2023-05-18T02:50:50.323Z,98860.03
2023-05-18T02:52:22.709Z,98854.03
2023-05-18T02:53:57.657Z,98850.44
2023-05-18T02:55:31.793Z,98852.13
2023-05-18T02:57:14.139Z,98856.53
2023-05-18T02:59:09.000Z,98862.13
2023-05-18T03:00:44.866Z,98866.59
2023-05-18T03:02:23.064Z,98864.69
2023-05-18T03:03:57.941Z,98869.06
2023-05-18T03:05:32.407Z,98866.22
2023-05-18T03:07:08.118Z,98869.44
2023-05-18T03:08:42.650Z,98865.16
2023-05-18T03:10:17.428Z,98876.50
2023-05-18T03:11:51.877Z,98883.34
2023-05-18T03:13:24.517Z,98872.50
2023-05-18T03:14:57.704Z,98877.63
2023-05-18T03:16:30.973Z,98876.81
2023-05-18T03:18:06.306Z,98884.69
2023-05-18T03:19:39.458Z,98882.31
2023-05-18T03:21:13.765Z,98873.53
2023-05-18T03:22:47.101Z,98879.56
2023-05-18T03:24:20.717Z,98882.13
2023-05-18T03:25:55.833Z,98876.91
2023-05-18T03:27:32.006Z,98886.59
2023-05-18T03:29:05.297Z,98886.41
2023-05-18T03:30:38.881Z,98889.06
2023-05-18T03:32:11.593Z,98891.72
2023-05-18T03:33:46.447Z,98893.44
2023-05-18T03:35:19.641Z,98884.50
2023-05-18T03:36:54.934Z,98889.81
2023-05-18T03:38:27.160Z,98891.72
2023-05-18T03:40:14.644Z,98891.91
2023-05-18T03:41:49.330Z,98886.28
2023-05-18T03:43:25.453Z,98902.94
2023-05-18T03:44:58.691Z,98897.59
2023-05-18T03:46:32.278Z,98900.94
2023-05-18T03:48:05.014Z,98899.91
2023-05-18T03:49:39.973Z,98900.47
2023-05-18T03:51:13.495Z,98910.09
2023-05-18T03:52:46.782Z,98903.72
2023-05-18T03:54:19.983Z,98895.81
2023-05-18T03:55:53.486Z,98896.47
2023-05-18T03:57:25.951Z,98910.41
2023-05-18T03:59:00.292Z,98905.06
2023-05-18T04:00:32.871Z,98908.47
2023-05-18T04:02:07.925Z,98904.84
2023-05-18T04:03:42.726Z,98911.91
2023-05-18T04:05:18.266Z,98909.16
2023-05-18T04:06:53.179Z,98920.47
2023-05-18T04:08:27.047Z,98923.84
2023-05-18T04:10:00.242Z,98925.25
2023-05-18T04:11:32.601Z,98925.75
2023-05-18T04:13:05.926Z,98922.59
2023-05-18T04:14:42.378Z,98925.63
2023-05-18T04:16:15.968Z,98925.25
2023-05-18T04:17:51.906Z,98919.06
2023-05-18T04:19:25.208Z,98929.06
2023-05-18T04:21:00.557Z,98926.88
2023-05-18T04:22:36.356Z,98923.81
2023-05-18T04:24:14.576Z,98927.72
2023-05-18T04:25:49.460Z,98929.22
2023-05-18T04:27:23.042Z,98923.38
2023-05-18T04:29:00.253Z,98932.78
2023-05-18T04:30:35.592Z,98939.06
2023-05-18T04:32:10.955Z,98936.75
2023-05-18T04:33:47.452Z,98929.66
2023-05-18T04:35:20.656Z,98942.63
2023-05-18T04:36:54.616Z,98939.44
2023-05-18T04:38:27.774Z,98932.84
2023-05-18T04:40:02.407Z,98936.91
2023-05-18T04:41:37.916Z,98931.81
2023-05-18T04:43:11.874Z,98932.00
2023-05-18T04:44:45.274Z,98930.94
2023-05-18T04:46:18.890Z,98927.31
2023-05-18T04:47:54.616Z,98922.81
2023-05-18T04:49:28.426Z,98924.34
2023-05-18T04:51:01.628Z,98932.06
2023-05-18T04:52:37.173Z,98929.84
2023-05-18T04:54:10.382Z,98936.06
2023-05-18T04:55:42.872Z,98935.91
2023-05-18T04:57:18.157Z,98938.72
2023-05-18T04:58:51.669Z,98942.28
2023-05-18T05:00:24.754Z,98943.88
2023-05-18T05:01:58.310Z,98949.09
2023-05-18T05:03:32.768Z,98946.72
2023-05-18T05:05:05.908Z,98948.53
2023-05-18T05:06:39.154Z,98945.34
2023-05-18T05:08:14.123Z,98950.03
2023-05-18T05:09:46.373Z,98946.41
2023-05-18T05:11:19.948Z,98941.50
2023-05-18T05:12:53.865Z,98943.66
2023-05-18T05:14:26.201Z,98943.88
2023-05-18T05:15:59.384Z,98949.63
2023-05-18T05:17:33.100Z,98945.78
2023-05-18T05:19:06.831Z,98950.81
2023-05-18T05:20:40.572Z,98952.41
2023-05-18T05:22:13.279Z,98950.41
2023-05-18T05:23:48.129Z,98959.28
2023-05-18T05:25:22.226Z,98957.75
2023-05-18T05:26:56.535Z,98961.63
2023-05-18T05:28:29.693Z,98959.16
2023-05-18T05:30:02.115Z,98966.34
2023-05-18T05:31:37.103Z,98968.66
2023-05-18T05:33:09.818Z,98971.00
2023-05-18T05:34:47.002Z,98973.03
2023-05-18T05:36:21.900Z,98966.94
2023-05-18T05:37:55.084Z,98980.84
2023-05-18T05:39:29.992Z,98971.94
2023-05-18T05:41:05.380Z,98974.38
2023-05-18T05:42:39.097Z,98965.41
2023-05-18T05:44:13.958Z,98977.13
2023-05-18T05:45:47.622Z,98980.56
2023-05-18T05:47:20.051Z,98969.44
2023-05-18T05:48:53.527Z,98975.00
2023-05-18T05:50:28.725Z,98980.38
2023-05-18T05:52:05.522Z,98974.25
2023-05-18T05:53:39.104Z,98978.63
2023-05-18T05:55:13.985Z,98982.50
2023-05-18T05:56:47.248Z,98979.81
2023-05-18T05:58:22.812Z,98988.72
2023-05-18T06:00:06.454Z,98983.69
2023-05-18T06:01:54.414Z,98982.97
2023-05-18T06:03:29.521Z,98985.75
2023-05-18T06:05:06.515Z,98985.41
2023-05-18T06:06:40.571Z,98990.31
2023-05-18T06:08:16.034Z,98986.75
2023-05-18T06:09:50.368Z,98979.06
2023-05-18T06:11:27.212Z,98985.06
2023-05-18T06:13:00.636Z,98984.84
2023-05-18T06:14:58.117Z,98979.28
2023-05-18T06:16:31.481Z,98981.25
2023-05-18T06:18:06.492Z,98980.16
2023-05-18T06:19:39.784Z,98973.28
2023-05-18T06:21:13.187Z,98978.19
2023-05-18T06:22:46.960Z,98973.81
2023-05-18T06:24:30.905Z,98974.69
2023-05-18T06:26:23.356Z,98968.38
2023-05-18T06:28:24.185Z,98967.78
2023-05-18T06:30:05.636Z,98968.38
2023-05-18T06:31:48.084Z,98973.53
2023-05-18T06:33:28.546Z,98971.69
2023-05-18T06:35:01.904Z,98981.19
2023-05-18T06:36:35.081Z,98979.00
2023-05-18T06:38:08.732Z,98981.91
2023-05-18T06:39:41.863Z,98989.38
2023-05-18T06:41:15.400Z,98990.75
2023-05-18T06:42:48.951Z,98982.69
2023-05-18T06:44:46.214Z,98987.69
2023-05-18T06:46:26.621Z,98984.13
2023-05-18T06:48:07.423Z,98985.81
2023-05-18T06:49:40.791Z,98982.88
2023-05-18T06:51:16.330Z,98984.09
2023-05-18T06:52:51.587Z,98986.66
2023-05-18T06:54:24.831Z,98990.91
2023-05-18T06:55:58.025Z,98991.41
2023-05-18T06:57:32.023Z,98991.44
2023-05-18T06:59:05.141Z,98998.78
2023-05-18T07:00:40.902Z,98996.59
2023-05-18T07:02:15.113Z,98994.69
2023-05-18T07:03:49.111Z,99002.75
2023-05-18T07:05:23.386Z,98998.47
2023-05-18T07:06:57.039Z,99004.69
2023-05-18T07:08:30.492Z,99005.53
2023-05-18T07:10:04.908Z,99005.06
2023-05-18T07:11:38.068Z,99002.22
2023-05-18T07:13:11.252Z,99014.94
2023-05-18T07:14:44.448Z,99014.81
2023-05-18T07:16:19.311Z,99014.19
2023-05-18T07:17:52.545Z,99018.84
2023-05-18T07:19:26.020Z,99016.88
2023-05-18T07:20:59.274Z,99017.03
2023-05-18T07:22:32.779Z,99021.81
2023-05-18T07:24:06.738Z,99023.28
2023-05-18T07:25:39.992Z,99022.28
2023-05-18T07:27:13.199Z,99028.00
2023-05-18T07:28:47.962Z,99032.31
2023-05-18T07:30:21.250Z,99020.56
2023-05-18T07:31:55.954Z,99015.06
2023-05-18T07:33:29.322Z,99022.69
2023-05-18T07:35:03.016Z,99008.75
2023-05-18T07:36:36.340Z,99012.19
2023-05-18T07:38:09.585Z,99015.84
2023-05-18T07:39:42.886Z,99004.59
2023-05-18T07:41:16.391Z,99008.63
2023-05-18T07:42:49.572Z,99017.88
2023-05-18T07:44:22.836Z,99023.03
2023-05-18T07:45:55.976Z,99024.47
2023-05-18T07:47:31.167Z,99018.09
2023-05-18T07:49:04.339Z,99023.72
2023-05-18T07:50:37.672Z,99042.53
2023-05-18T07:52:10.849Z,99041.44
2023-05-18T07:53:46.113Z,99046.69
2023-05-18T07:55:19.464Z,99043.78
2023-05-18T07:56:52.752Z,99046.69
2023-05-18T07:58:26.058Z,99045.00
2023-05-18T07:59:59.760Z,99049.09
2023-05-18T08:01:32.899Z,99053.44
2023-05-18T08:03:08.678Z,99061.75
2023-05-18T08:04:41.936Z,99069.22
2023-05-18T08:06:15.313Z,99064.59
2023-05-18T08:07:48.464Z,99075.09
2023-05-18T08:09:22.386Z,99078.25
2023-05-18T08:10:55.537Z,99089.94
2023-05-18T08:12:30.053Z,99092.34
2023-05-18T08:14:03.265Z,99093.69
2023-05-18T08:15:37.301Z,99088.97
2023-05-18T08:17:10.656Z,99092.34
2023-05-18T08:18:45.632Z,99091.09
2023-05-18T08:20:19.255Z,99103.66
2023-05-18T08:21:52.497Z,99097.94
2023-05-18T08:23:26.146Z,99104.06
2023-05-18T08:25:01.197Z,99118.09
2023-05-18T08:26:34.520Z,99126.63
2023-05-18T08:28:07.765Z,99131.13
2023-05-18T08:29:41.219Z,99124.03
2023-05-18T08:31:14.783Z,99130.13
2023-05-18T08:32:47.983Z,99133.84
2023-05-18T08:34:22.697Z,99137.16
2023-05-18T08:35:56.741Z,99136.44
2023-05-18T08:37:31.283Z,99137.91
2023-05-18T08:39:05.625Z,99146.59
2023-05-18T08:40:48.300Z,99154.78
2023-05-18T08:42:27.603Z,99158.22
2023-05-18T08:44:10.759Z,99160.31
2023-05-18T08:45:51.596Z,99164.56
2023-05-18T08:47:26.842Z,99169.81
2023-05-18T08:49:02.132Z,99169.91
2023-05-18T08:50:39.140Z,99166.09
2023-05-18T08:52:19.150Z,99169.75
2023-05-18T08:53:54.723Z,99178.22
2023-05-18T08:55:29.539Z,99174.97
2023-05-18T08:57:05.912Z,99173.94
2023-05-18T08:58:45.113Z,99166.69
2023-05-18T09:00:18.573Z,99163.25
2023-05-18T09:01:52.467Z,99166.69
2023-05-18T09:03:26.599Z,99162.88
2023-05-18T09:05:00.474Z,99169.75
2023-05-18T09:06:35.938Z,99166.09
2023-05-18T09:08:10.877Z,99169.56
2023-05-18T09:09:45.506Z,99172.97
2023-05-18T09:11:19.738Z,99169.56
2023-05-18T09:12:56.168Z,99173.75
2023-05-18T09:14:30.511Z,99172.69
2023-05-18T09:16:04.472Z,99174.66
2023-05-18T09:17:37.779Z,99179.53
2023-05-18T09:19:11.238Z,99167.59
2023-05-18T09:20:44.500Z,99166.97
2023-05-18T09:22:19.818Z,99176.91
2023-05-18T09:23:53.028Z,99163.22
2023-05-18T09:25:27.716Z,99159.91
2023-05-18T09:27:01.068Z,99163.53
2023-05-18T09:28:37.813Z,99158.94
2023-05-18T09:30:12.607Z,99160.09
2023-05-18T09:31:46.412Z,99162.75
2023-05-18T09:33:21.945Z,99162.38
2023-05-18T09:34:55.708Z,99165.03
2023-05-18T09:36:30.509Z,99167.19
2023-05-18T09:38:06.898Z,99169.13
2023-05-18T09:39:40.098Z,99166.38
2023-05-18T09:41:15.205Z,99157.91
2023-05-18T09:42:49.890Z,99169.84
2023-05-18T09:44:32.213Z,99165.78
2023-05-18T09:46:08.991Z,99179.28
2023-05-18T09:47:42.808Z,99174.75
2023-05-18T09:49:23.552Z,99162.59
2023-05-18T09:51:00.382Z,99163.50
2023-05-18T09:52:42.319Z,99160.06
2023-05-18T09:54:17.465Z,99156.44
2023-05-18T09:55:51.286Z,99155.56
2023-05-18T09:57:24.546Z,99164.56
2023-05-18T09:58:57.801Z,99163.28
2023-05-18T10:00:32.912Z,99157.53
2023-05-18T10:02:08.846Z,99166.75
2023-05-18T10:03:42.447Z,99171.66
2023-05-18T10:05:22.127Z,99179.78
2023-05-18T10:06:55.448Z,99176.16
2023-05-18T10:08:28.669Z,99172.72
2023-05-18T10:10:06.529Z,99167.78
2023-05-18T10:11:41.898Z,99166.06
2023-05-18T10:13:18.249Z,99173.25
2023-05-18T10:14:51.585Z,99168.44
2023-05-18T10:16:25.836Z,99170.97
2023-05-18T10:18:01.062Z,99170.97
2023-05-18T10:19:36.633Z,99171.09
2023-05-18T10:21:12.682Z,99178.69
2023-05-18T10:22:47.590Z,99175.06
2023-05-18T10:24:22.963Z,99170.44
2023-05-18T10:25:59.550Z,99176.66
2023-05-18T10:27:36.594Z,99178.03
2023-05-18T10:29:11.145Z,99181.78
2023-05-18T10:30:45.249Z,99188.94
2023-05-18T10:32:20.890Z,99190.13
2023-05-18T10:33:56.336Z,99186.75
2023-05-18T10:35:29.863Z,99186.16
2023-05-18T10:37:05.366Z,99177.53
2023-05-18T10:38:40.788Z,99183.34
2023-05-18T10:40:15.285Z,99181.19
2023-05-18T10:41:52.690Z,99184.63
2023-05-18T10:43:28.169Z,99183.75
2023-05-18T10:45:02.479Z,99182.25
2023-05-18T10:46:37.168Z,99171.88
2023-05-18T10:48:12.140Z,99182.63
2023-05-18T10:49:48.624Z,99187.28
2023-05-18T10:51:27.019Z,99187.53
2023-05-18T10:53:01.005Z,99187.22
2023-05-18T10:54:34.608Z,99189.91
2023-05-18T10:56:09.075Z,99197.63
2023-05-18T10:57:48.426Z,99200.19
2023-05-18T10:59:23.993Z,99197.41
2023-05-18T11:00:58.984Z,99188.97
2023-05-18T11:02:32.739Z,99193.28
2023-05-18T11:04:06.403Z,99200.94
2023-05-18T11:05:40.183Z,99187.41
2023-05-18T11:07:14.300Z,99192.09
2023-05-18T11:08:49.957Z,99197.00
2023-05-18T11:10:24.031Z,99197.84
2023-05-18T11:11:58.854Z,99199.16
2023-05-18T11:13:34.399Z,99199.16
2023-05-18T11:15:09.048Z,99208.41
2023-05-18T11:16:43.463Z,99200.81
2023-05-18T11:18:16.956Z,99206.69
2023-05-18T11:20:13.357Z,99208.00
2023-05-18T11:21:54.359Z,99213.16
2023-05-18T11:23:27.615Z,99217.56
2023-05-18T11:25:05.117Z,99219.22
2023-05-18T11:26:40.993Z,99220.72
2023-05-18T11:28:14.869Z,99216.56
2023-05-18T11:29:51.918Z,99213.22
2023-05-18T11:31:44.991Z,99207.53
2023-05-18T11:33:23.464Z,99203.25
2023-05-18T11:34:57.341Z,99216.00
2023-05-18T11:36:33.182Z,99217.06
2023-05-18T11:38:10.127Z,99226.06
2023-05-18T11:39:55.471Z,99221.91
2023-05-18T11:41:34.357Z,99218.56
2023-05-18T11:43:07.612Z,99213.66
2023-05-18T11:44:41.537Z,99218.56
2023-05-18T11:46:21.895Z,99216.25
2023-05-18T11:48:02.994Z,99214.94
2023-05-18T11:49:39.512Z,99213.66
2023-05-18T11:51:12.161Z,99220.50
2023-05-18T11:52:49.503Z,99224.78
2023-05-18T11:54:24.107Z,99217.38
2023-05-18T11:55:57.633Z,99211.28
2023-05-18T11:57:41.041Z,99206.34
2023-05-18T11:59:16.068Z,99210.84
2023-05-18T12:00:50.615Z,99199.81
2023-05-18T12:02:26.868Z,99200.91
2023-05-18T12:04:01.042Z,99193.28
2023-05-18T12:05:35.784Z,99192.44
2023-05-18T12:07:08.098Z,99203.25
2023-05-18T12:08:44.060Z,99208.16
2023-05-18T12:10:17.727Z,99203.66
2023-05-18T12:11:51.019Z,99205.91
2023-05-18T12:13:24.956Z,99200.56
2023-05-18T12:14:59.594Z,99211.34
2023-05-18T12:16:33.507Z,99210.56
2023-05-18T12:18:08.291Z,99209.09
2023-05-18T12:19:45.568Z,99207.59
2023-05-18T12:21:23.489Z,99209.09
2023-05-18T12:22:57.266Z,99207.34
2023-05-18T12:24:29.515Z,99221.09
2023-05-18T12:26:02.692Z,99212.72
2023-05-18T12:27:40.042Z,99206.81
2023-05-18T12:29:19.791Z,99212.50
2023-05-18T12:30:57.193Z,99210.41
2023-05-18T12:32:31.904Z,99219.25
2023-05-18T12:34:06.534Z,99208.75
2023-05-18T12:35:39.874Z,99217.28
2023-05-18T12:37:13.255Z,99219.41
2023-05-18T12:38:50.650Z,99214.16
2023-05-18T12:40:24.163Z,99218.22
2023-05-18T12:42:10.203Z,99212.31
2023-05-18T12:43:43.564Z,99218.59
2023-05-18T12:45:16.774Z,99204.88
2023-05-18T12:46:50.104Z,99209.63
2023-05-18T12:48:26.651Z,99212.69
2023-05-18T12:50:04.093Z,99206.94
2023-05-18T12:51:38.860Z,99206.38
2023-05-18T12:53:12.172Z,99190.00
2023-05-18T12:54:58.739Z,99198.31
2023-05-18T12:57:01.472Z,99188.78
2023-05-18T12:58:35.451Z,99180.97
2023-05-18T13:00:10.870Z,99188.59
2023-05-18T13:01:44.583Z,99183.13
2023-05-18T13:03:19.389Z,99184.47
2023-05-18T13:05:03.482Z,99188.63
2023-05-18T13:06:39.392Z,99185.69
2023-05-18T13:08:16.386Z,99178.63
2023-05-18T13:09:49.778Z,99180.09
2023-05-18T13:11:27.764Z,99181.56
2023-05-18T13:13:04.109Z,99177.88
2023-05-18T13:14:39.564Z,99175.66
2023-05-18T13:16:17.777Z,99175.19
2023-05-18T13:17:58.781Z,99168.38
2023-05-18T13:19:32.675Z,99172.53
2023-05-18T13:21:08.757Z,99172.88
2023-05-18T13:22:42.119Z,99176.78
2023-05-18T13:24:15.669Z,99176.66
2023-05-18T13:25:49.570Z,99179.34
2023-05-18T13:27:22.713Z,99186.06
2023-05-18T13:28:57.216Z,99178.34
2023-05-18T13:30:30.633Z,99181.53
2023-05-18T13:32:04.465Z,99187.16
2023-05-18T13:33:36.765Z,99177.53
2023-05-18T13:35:12.195Z,99177.50
2023-05-18T13:36:46.844Z,99181.78
2023-05-18T13:38:20.319Z,99174.94
2023-05-18T13:39:53.614Z,99174.22
2023-05-18T13:41:27.049Z,99178.97
2023-05-18T13:43:00.276Z,99182.38
2023-05-18T13:44:33.754Z,99178.63
2023-05-18T13:46:07.100Z,99174.94
2023-05-18T13:47:41.492Z,99178.06
2023-05-18T13:49:14.666Z,99179.25
2023-05-18T13:50:48.202Z,99176.16
2023-05-18T13:52:22.787Z,99174.81
2023-05-18T13:53:56.083Z,99174.06
2023-05-18T13:55:29.582Z,99174.25
2023-05-18T13:57:03.585Z,99181.81
2023-05-18T13:58:37.171Z,99182.72
2023-05-18T14:00:13.099Z,99180.38
2023-05-18T14:01:47.541Z,99172.06
2023-05-18T14:03:21.311Z,99173.81
2023-05-18T14:04:54.555Z,99185.25
2023-05-18T14:06:28.040Z,99189.28
2023-05-18T14:08:02.672Z,99183.94
2023-05-18T14:09:36.097Z,99176.44
2023-05-18T14:11:09.280Z,99192.34
2023-05-18T14:12:43.572Z,99199.56
2023-05-18T14:14:16.907Z,99190.56
2023-05-18T14:15:50.272Z,99196.78
2023-05-18T14:17:23.568Z,99194.94
2023-05-18T14:18:56.833Z,99192.34
2023-05-18T14:20:31.059Z,99187.63
2023-05-18T14:22:04.866Z,99191.16
2023-05-18T14:23:39.592Z,99194.59
2023-05-18T14:25:12.941Z,99193.41
2023-05-18T14:26:46.073Z,99185.25
2023-05-18T14:28:19.363Z,99187.06
2023-05-18T14:29:52.733Z,99182.88
2023-05-18T14:31:25.293Z,99183.66
2023-05-18T14:32:58.577Z,99179.69
2023-05-18T14:34:31.968Z,99177.53
2023-05-18T14:36:05.810Z,99169.59
2023-05-18T14:37:39.699Z,99180.09
2023-05-18T14:39:14.287Z,99170.84
2023-05-18T14:40:47.561Z,99177.91
2023-05-18T14:42:21.116Z,99172.81
2023-05-18T14:43:54.465Z,99178.59
2023-05-18T14:45:27.694Z,99169.81
2023-05-18T14:47:00.008Z,99179.00
2023-05-18T14:48:33.358Z,99175.41
2023-05-18T14:50:07.628Z,99173.41
2023-05-18T14:51:40.776Z,99174.69
2023-05-18T14:53:14.271Z,99179.81
2023-05-18T14:54:49.017Z,99179.13
2023-05-18T14:56:22.823Z,99178.28
2023-05-18T14:57:56.126Z,99176.56
2023-05-18T14:59:30.867Z,99172.06
2023-05-18T15:01:04.158Z,99174.13
2023-05-18T15:02:37.699Z,99170.19
2023-05-18T15:04:11.117Z,99163.56
2023-05-18T15:05:45.834Z,99164.44
2023-05-18T15:07:19.312Z,99164.59
2023-05-18T15:08:55.150Z,99177.75
2023-05-18T15:10:29.891Z,99167.72
2023-05-18T15:12:03.360Z,99162.66
2023-05-18T15:13:36.611Z,99164.06
2023-05-18T15:15:11.024Z,99172.25
2023-05-18T15:16:44.253Z,99172.00
2023-05-18T15:18:17.724Z,99167.19
2023-05-18T15:19:51.027Z,99176.72
2023-05-18T15:21:24.301Z,99164.69
2023-05-18T15:22:57.498Z,99165.53
2023-05-18T15:24:30.944Z,99171.75
2023-05-18T15:26:08.744Z,99167.38
2023-05-18T15:27:42.680Z,99165.78
2023-05-18T15:29:15.892Z,99171.16
2023-05-18T15:30:49.170Z,99167.91
2023-05-18T15:32:22.397Z,99170.81
2023-05-18T15:33:55.706Z,99172.66
2023-05-18T15:35:29.044Z,99168.59
2023-05-18T15:37:02.748Z,99179.03
2023-05-18T15:38:36.112Z,99172.16
2023-05-18T15:40:10.167Z,99170.56
2023-05-18T15:41:44.684Z,99166.06
2023-05-18T15:43:17.943Z,99168.63
2023-05-18T15:44:51.496Z,99169.63
2023-05-18T15:46:24.937Z,99174.22
2023-05-18T15:47:58.205Z,99172.72
2023-05-18T15:49:31.717Z,99171.22
2023-05-18T15:51:05.120Z,99176.28
2023-05-18T15:52:38.333Z,99175.94
2023-05-18T15:54:11.675Z,99173.69
2023-05-18T15:55:45.183Z,99164.34
2023-05-18T15:57:20.120Z,99175.72
2023-05-18T15:58:53.506Z,99174.66
2023-05-18T16:00:26.790Z,99184.56
2023-05-18T16:02:00.151Z,99185.56
2023-05-18T16:03:33.749Z,99181.28
2023-05-18T16:05:07.822Z,99184.91
2023-05-18T16:06:41.230Z,99197.75
2023-05-18T16:08:15.203Z,99201.16
2023-05-18T16:09:48.460Z,99199.44
2023-05-18T16:11:21.835Z,99200.91
2023-05-18T16:13:00.504Z,99189.88
2023-05-18T16:14:33.840Z,99187.81
2023-05-18T16:16:12.002Z,99190.38
2023-05-18T16:17:45.265Z,99196.78
2023-05-18T16:19:18.757Z,99195.81
2023-05-18T16:20:52.027Z,99202.16
2023-05-18T16:22:25.458Z,99186.69
2023-05-18T16:23:58.803Z,99195.28
2023-05-18T16:25:32.839Z,99202.16
2023-05-18T16:27:06.494Z,99207.50
2023-05-18T16:28:41.576Z,99207.50
2023-05-18T16:30:15.054Z,99202.03
2023-05-18T16:31:48.281Z,99217.91
2023-05-18T16:33:21.659Z,99209.00
2023-05-18T16:34:54.956Z,99213.81
2023-05-18T16:36:28.369Z,99209.19
2023-05-18T16:38:01.495Z,99219.25
2023-05-18T16:39:34.753Z,99228.22
2023-05-18T16:41:08.193Z,99243.44
2023-05-18T16:42:41.559Z,99242.47
2023-05-18T16:44:16.079Z,99249.63
2023-05-18T16:45:49.377Z,99250.69
2023-05-18T16:47:23.033Z,99252.63
2023-05-18T16:48:56.325Z,99253.00
2023-05-18T16:50:29.761Z,99247.13
2023-05-18T16:52:03.805Z,99235.19
2023-05-18T16:53:37.545Z,99227.53
2023-05-18T16:55:11.187Z,99227.28
2023-05-18T16:56:44.306Z,99236.91
2023-05-18T16:58:17.623Z,99234.13
2023-05-18T16:59:52.630Z,99231.56
2023-05-18T17:01:28.452Z,99231.56
2023-05-18T17:03:03.517Z,99239.69
2023-05-18T17:04:37.181Z,99240.53
2023-05-18T17:06:10.687Z,99239.47
2023-05-18T17:07:44.197Z,99240.44
2023-05-18T17:09:20.518Z,99238.75
2023-05-18T17:10:53.940Z,99248.66
2023-05-18T17:12:27.310Z,99246.97
2023-05-18T17:14:01.743Z,99250.38
2023-05-18T17:15:36.581Z,99252.31
2023-05-18T17:17:10.209Z,99253.91
2023-05-18T17:18:43.471Z,99243.03
2023-05-18T17:20:16.843Z,99249.00
2023-05-18T17:21:50.079Z,99264.69
2023-05-18T17:23:23.503Z,99261.06
2023-05-18T17:24:56.782Z,99257.03
2023-05-18T17:26:33.381Z,99256.09
2023-05-18T17:28:06.907Z,99254.34
2023-05-18T17:29:40.144Z,99255.31
2023-05-18T17:31:15.009Z,99266.78
2023-05-18T17:32:50.638Z,99266.97
2023-05-18T17:34:26.792Z,99261.19
2023-05-18T17:36:00.168Z,99258.19
2023-05-18T17:37:33.557Z,99259.94
2023-05-18T17:39:07.042Z,99247.50
2023-05-18T17:40:40.237Z,99250.50
2023-05-18T17:42:13.572Z,99244.47
2023-05-18T17:43:46.913Z,99256.88
2023-05-18T17:45:20.244Z,99251.75
2023-05-18T17:46:54.917Z,99260.69
2023-05-18T17:48:28.348Z,99252.56
2023-05-18T17:50:01.701Z,99258.59
2023-05-18T17:51:35.079Z,99258.41
2023-05-18T17:53:08.274Z,99264.50
2023-05-18T17:54:41.624Z,99262.22
2023-05-18T17:56:15.194Z,99263.25
2023-05-18T17:57:48.594Z,99264.13
2023-05-18T17:59:21.750Z,99267.78
2023-05-18T18:00:55.014Z,99273.31
2023-05-18T18:02:29.627Z,99272.34
2023-05-18T18:04:02.974Z,99271.59
2023-05-18T18:05:36.192Z,99277.41
2023-05-18T18:07:09.465Z,99284.38
2023-05-18T18:08:43.049Z,99286.31
2023-05-18T18:10:16.408Z,99286.31
2023-05-18T18:11:49.611Z,99278.84
2023-05-18T18:13:23.347Z,99282.66
2023-05-18T18:14:55.949Z,99280.00
2023-05-18T18:16:29.575Z,99295.06
2023-05-18T18:18:04.207Z,99291.84
2023-05-18T18:19:37.501Z,99295.47
2023-05-18T18:21:10.913Z,99283.22
2023-05-18T18:22:44.333Z,99297.09
2023-05-18T18:24:17.568Z,99299.75
2023-05-18T18:25:50.932Z,99300.59
2023-05-18T18:27:24.207Z,99297.56
2023-05-18T18:28:57.565Z,99299.66
2023-05-18T18:30:31.157Z,99291.94
2023-05-18T18:32:04.888Z,99299.66
2023-05-18T18:33:40.582Z,99306.53
2023-05-18T18:35:13.951Z,99296.72